sensor_id;sensor_type;location;lat;lon;timestamp;P1;durP1;ratioP1;P2;durP2;ratioP2
17631;SDS011;8934;51.194;17.150;2023-01-09T00:02:05;73.78;;;31.98;;
17631;SDS011;8934;51.194;17.150;2023-01-09T00:04:53;57.22;;;28.00;;
17631;SDS011;8934;51.194;17.150;2023-01-09T00:07:42;64.70;;;30.92;;
17631;SDS011;8934;51.194;17.150;2023-01-09T00:10:29;61.92;;;31.23;;
17631;SDS011;8934;51.194;17.150;2023-01-09T00:13:16;83.03;;;36.38;;
17631;SDS011;8934;51.194;17.150;2023-01-09T00:16:04;59.95;;;28.80;;
17631;SDS011;8934;51.194;17.150;2023-01-09T00:18:52;59.67;;;29.63;;
17631;SDS011;8934;51.194;17.150;2023-01-09T00:21:39;53.97;;;26.83;;
17631;SDS011;8934;51.194;17.150;2023-01-09T00:24:28;76.82;;;31.65;;
17631;SDS011;8934;51.194;17.150;2023-01-09T00:27:15;69.10;;;31.92;;
17631;SDS011;8934;51.194;17.150;2023-01-09T00:30:03;74.63;;;33.47;;
17631;SDS011;8934;51.194;17.150;2023-01-09T00:32:52;63.92;;;31.02;;
17631;SDS011;8934;51.194;17.150;2023-01-09T00:35:40;57.28;;;28.70;;
17631;SDS011;8934;51.194;17.150;2023-01-09T00:38:27;74.88;;;33.13;;
17631;SDS011;8934;51.194;17.150;2023-01-09T00:41:17;60.25;;;27.63;;
17631;SDS011;8934;51.194;17.150;2023-01-09T00:44:07;64.47;;;29.23;;
17631;SDS011;8934;51.194;17.150;2023-01-09T00:46:57;57.47;;;28.05;;
17631;SDS011;8934;51.194;17.150;2023-01-09T00:49:48;51.50;;;25.42;;
17631;SDS011;8934;51.194;17.150;2023-01-09T00:52:37;49.10;;;23.77;;
17631;SDS011;8934;51.194;17.150;2023-01-09T00:55:25;45.63;;;21.63;;
17631;SDS011;8934;51.194;17.150;2023-01-09T00:58:14;46.97;;;21.20;;
17631;SDS011;8934;51.194;17.150;2023-01-09T01:01:02;40.20;;;20.48;;
17631;SDS011;8934;51.194;17.150;2023-01-09T01:03:50;46.13;;;21.90;;
17631;SDS011;8934;51.194;17.150;2023-01-09T01:06:37;40.15;;;18.48;;
17631;SDS011;8934;51.194;17.150;2023-01-09T01:09:41;38.45;;;17.52;;
17631;SDS011;8934;51.194;17.150;2023-01-09T01:12:29;46.67;;;19.25;;
17631;SDS011;8934;51.194;17.150;2023-01-09T01:15:18;35.60;;;16.95;;
17631;SDS011;8934;51.194;17.150;2023-01-09T01:18:06;40.13;;;18.23;;
17631;SDS011;8934;51.194;17.150;2023-01-09T01:20:53;35.20;;;17.70;;
17631;SDS011;8934;51.194;17.150;2023-01-09T01:23:41;35.83;;;17.33;;
17631;SDS011;8934;51.194;17.150;2023-01-09T01:26:28;38.00;;;20.23;;
17631;SDS011;8934;51.194;17.150;2023-01-09T01:29:17;37.75;;;19.27;;
17631;SDS011;8934;51.194;17.150;2023-01-09T01:32:05;46.28;;;22.38;;
17631;SDS011;8934;51.194;17.150;2023-01-09T01:34:53;52.67;;;24.70;;
17631;SDS011;8934;51.194;17.150;2023-01-09T01:37:40;47.13;;;23.83;;
17631;SDS011;8934;51.194;17.150;2023-01-09T01:40:28;51.70;;;25.55;;
17631;SDS011;8934;51.194;17.150;2023-01-09T01:43:16;52.40;;;23.48;;
17631;SDS011;8934;51.194;17.150;2023-01-09T01:46:03;53.28;;;25.55;;
17631;SDS011;8934;51.194;17.150;2023-01-09T01:48:53;64.10;;;28.98;;
17631;SDS011;8934;51.194;17.150;2023-01-09T01:51:45;62.47;;;28.67;;
17631;SDS011;8934;51.194;17.150;2023-01-09T01:54:35;59.53;;;29.02;;
17631;SDS011;8934;51.194;17.150;2023-01-09T01:57:22;59.35;;;25.42;;
17631;SDS011;8934;51.194;17.150;2023-01-09T02:00:10;52.35;;;26.30;;
17631;SDS011;8934;51.194;17.150;2023-01-09T02:02:58;54.67;;;25.75;;
17631;SDS011;8934;51.194;17.150;2023-01-09T02:05:48;48.55;;;22.77;;
17631;SDS011;8934;51.194;17.150;2023-01-09T02:08:36;50.03;;;24.38;;
17631;SDS011;8934;51.194;17.150;2023-01-09T02:11:23;37.85;;;19.70;;
17631;SDS011;8934;51.194;17.150;2023-01-09T02:14:10;39.67;;;20.05;;
17631;SDS011;8934;51.194;17.150;2023-01-09T02:17:00;47.33;;;20.63;;
17631;SDS011;8934;51.194;17.150;2023-01-09T02:20:07;46.50;;;23.83;;
17631;SDS011;8934;51.194;17.150;2023-01-09T02:23:37;45.00;;;23.17;;
17631;SDS011;8934;51.194;17.150;2023-01-09T02:27:05;44.33;;;23.00;;
17631;SDS011;8934;51.194;17.150;2023-01-09T02:30:11;49.10;;;24.48;;
17631;SDS011;8934;51.194;17.150;2023-01-09T02:36:29;51.80;;;24.40;;
17631;SDS011;8934;51.194;17.150;2023-01-09T02:39:22;57.63;;;26.42;;
17631;SDS011;8934;51.194;17.150;2023-01-09T02:42:16;47.55;;;25.10;;
17631;SDS011;8934;51.194;17.150;2023-01-09T02:45:07;55.83;;;24.23;;
17631;SDS011;8934;51.194;17.150;2023-01-09T02:47:55;55.30;;;24.98;;
17631;SDS011;8934;51.194;17.150;2023-01-09T02:50:45;61.75;;;28.20;;
17631;SDS011;8934;51.194;17.150;2023-01-09T02:53:41;62.00;;;28.50;;
17631;SDS011;8934;51.194;17.150;2023-01-09T02:56:54;53.45;;;24.77;;
17631;SDS011;8934;51.194;17.150;2023-01-09T02:59:56;59.65;;;25.48;;
17631;SDS011;8934;51.194;17.150;2023-01-09T03:02:52;55.75;;;25.83;;
17631;SDS011;8934;51.194;17.150;2023-01-09T03:05:51;62.83;;;27.33;;
17631;SDS011;8934;51.194;17.150;2023-01-09T03:08:44;47.53;;;22.98;;
17631;SDS011;8934;51.194;17.150;2023-01-09T03:11:39;50.90;;;24.25;;
17631;SDS011;8934;51.194;17.150;2023-01-09T03:14:32;50.97;;;25.20;;
17631;SDS011;8934;51.194;17.150;2023-01-09T03:17:21;49.50;;;23.98;;
17631;SDS011;8934;51.194;17.150;2023-01-09T03:20:15;46.20;;;22.40;;
17631;SDS011;8934;51.194;17.150;2023-01-09T03:23:07;43.30;;;20.13;;
17631;SDS011;8934;51.194;17.150;2023-01-09T03:25:54;43.05;;;20.95;;
17631;SDS011;8934;51.194;17.150;2023-01-09T03:28:42;54.38;;;25.00;;
17631;SDS011;8934;51.194;17.150;2023-01-09T03:31:30;52.65;;;23.65;;
17631;SDS011;8934;51.194;17.150;2023-01-09T03:34:17;44.72;;;22.40;;
17631;SDS011;8934;51.194;17.150;2023-01-09T03:37:06;46.90;;;23.23;;
17631;SDS011;8934;51.194;17.150;2023-01-09T03:39:53;48.72;;;23.13;;
17631;SDS011;8934;51.194;17.150;2023-01-09T03:42:40;45.33;;;22.75;;
17631;SDS011;8934;51.194;17.150;2023-01-09T03:45:28;43.05;;;20.98;;
17631;SDS011;8934;51.194;17.150;2023-01-09T03:48:15;51.10;;;24.05;;
17631;SDS011;8934;51.194;17.150;2023-01-09T03:51:02;46.95;;;21.73;;
17631;SDS011;8934;51.194;17.150;2023-01-09T03:53:51;51.22;;;21.38;;
17631;SDS011;8934;51.194;17.150;2023-01-09T03:56:38;50.58;;;23.98;;
17631;SDS011;8934;51.194;17.150;2023-01-09T03:59:26;56.83;;;24.20;;
17631;SDS011;8934;51.194;17.150;2023-01-09T04:02:13;49.05;;;22.75;;
17631;SDS011;8934;51.194;17.150;2023-01-09T04:05:01;44.33;;;20.92;;
17631;SDS011;8934;51.194;17.150;2023-01-09T04:07:48;49.28;;;22.42;;
17631;SDS011;8934;51.194;17.150;2023-01-09T04:10:37;47.38;;;24.83;;
17631;SDS011;8934;51.194;17.150;2023-01-09T04:13:24;41.60;;;19.88;;
17631;SDS011;8934;51.194;17.150;2023-01-09T04:16:11;57.47;;;24.55;;
17631;SDS011;8934;51.194;17.150;2023-01-09T04:18:59;48.17;;;22.23;;
17631;SDS011;8934;51.194;17.150;2023-01-09T04:21:46;44.88;;;21.63;;
17631;SDS011;8934;51.194;17.150;2023-01-09T04:24:33;51.40;;;23.02;;
17631;SDS011;8934;51.194;17.150;2023-01-09T04:27:22;45.33;;;21.52;;
17631;SDS011;8934;51.194;17.150;2023-01-09T04:30:10;49.97;;;23.48;;
17631;SDS011;8934;51.194;17.150;2023-01-09T04:32:58;49.28;;;23.40;;
17631;SDS011;8934;51.194;17.150;2023-01-09T04:35:45;53.95;;;24.92;;
17631;SDS011;8934;51.194;17.150;2023-01-09T04:38:33;42.20;;;21.95;;
17631;SDS011;8934;51.194;17.150;2023-01-09T04:41:20;55.42;;;24.80;;
17631;SDS011;8934;51.194;17.150;2023-01-09T04:44:26;50.40;;;23.35;;
17631;SDS011;8934;51.194;17.150;2023-01-09T04:47:14;60.17;;;25.83;;
17631;SDS011;8934;51.194;17.150;2023-01-09T04:50:01;53.47;;;25.60;;
17631;SDS011;8934;51.194;17.150;2023-01-09T04:52:49;51.53;;;24.65;;
17631;SDS011;8934;51.194;17.150;2023-01-09T04:55:36;61.90;;;25.48;;
17631;SDS011;8934;51.194;17.150;2023-01-09T04:58:25;56.65;;;24.58;;
17631;SDS011;8934;51.194;17.150;2023-01-09T05:01:14;50.85;;;23.08;;
17631;SDS011;8934;51.194;17.150;2023-01-09T05:04:02;54.97;;;25.30;;
17631;SDS011;8934;51.194;17.150;2023-01-09T05:06:49;54.03;;;24.33;;
17631;SDS011;8934;51.194;17.150;2023-01-09T05:09:36;47.80;;;22.70;;
17631;SDS011;8934;51.194;17.150;2023-01-09T05:12:24;61.85;;;25.73;;
17631;SDS011;8934;51.194;17.150;2023-01-09T05:15:11;50.30;;;22.73;;
17631;SDS011;8934;51.194;17.150;2023-01-09T05:18:00;60.60;;;26.17;;
17631;SDS011;8934;51.194;17.150;2023-01-09T05:20:47;54.53;;;25.02;;
17631;SDS011;8934;51.194;17.150;2023-01-09T05:23:35;40.33;;;21.55;;
17631;SDS011;8934;51.194;17.150;2023-01-09T05:26:22;60.10;;;25.73;;
17631;SDS011;8934;51.194;17.150;2023-01-09T05:29:10;51.53;;;24.02;;
17631;SDS011;8934;51.194;17.150;2023-01-09T05:31:57;49.58;;;23.40;;
17631;SDS011;8934;51.194;17.150;2023-01-09T05:34:46;58.92;;;26.25;;
17631;SDS011;8934;51.194;17.150;2023-01-09T05:37:33;47.90;;;24.30;;
17631;SDS011;8934;51.194;17.150;2023-01-09T05:40:20;49.97;;;23.50;;
17631;SDS011;8934;51.194;17.150;2023-01-09T05:43:13;46.67;;;22.10;;
17631;SDS011;8934;51.194;17.150;2023-01-09T05:46:00;55.63;;;25.05;;
17631;SDS011;8934;51.194;17.150;2023-01-09T05:48:48;51.58;;;25.13;;
17631;SDS011;8934;51.194;17.150;2023-01-09T05:51:36;58.15;;;28.10;;
17631;SDS011;8934;51.194;17.150;2023-01-09T05:54:23;61.83;;;28.20;;
17631;SDS011;8934;51.194;17.150;2023-01-09T05:57:11;54.08;;;25.55;;
17631;SDS011;8934;51.194;17.150;2023-01-09T05:59:58;56.30;;;25.35;;
17631;SDS011;8934;51.194;17.150;2023-01-09T06:02:45;53.30;;;24.90;;
17631;SDS011;8934;51.194;17.150;2023-01-09T06:05:33;68.03;;;29.77;;
17631;SDS011;8934;51.194;17.150;2023-01-09T06:08:22;49.00;;;23.25;;
17631;SDS011;8934;51.194;17.150;2023-01-09T06:11:09;51.80;;;23.80;;
17631;SDS011;8934;51.194;17.150;2023-01-09T06:13:56;50.70;;;22.83;;
17631;SDS011;8934;51.194;17.150;2023-01-09T06:16:44;50.80;;;22.40;;
17631;SDS011;8934;51.194;17.150;2023-01-09T06:19:31;51.78;;;21.77;;
17631;SDS011;8934;51.194;17.150;2023-01-09T06:22:19;39.83;;;20.13;;
17631;SDS011;8934;51.194;17.150;2023-01-09T06:25:08;40.08;;;18.30;;
17631;SDS011;8934;51.194;17.150;2023-01-09T06:27:55;42.03;;;19.30;;
17631;SDS011;8934;51.194;17.150;2023-01-09T06:30:42;43.88;;;19.15;;
17631;SDS011;8934;51.194;17.150;2023-01-09T06:33:31;43.55;;;22.40;;
17631;SDS011;8934;51.194;17.150;2023-01-09T06:36:18;52.25;;;24.10;;
17631;SDS011;8934;51.194;17.150;2023-01-09T06:39:07;50.40;;;23.20;;
17631;SDS011;8934;51.194;17.150;2023-01-09T06:41:56;44.67;;;23.42;;
17631;SDS011;8934;51.194;17.150;2023-01-09T06:44:43;54.30;;;23.63;;
17631;SDS011;8934;51.194;17.150;2023-01-09T06:47:30;54.00;;;22.25;;
17631;SDS011;8934;51.194;17.150;2023-01-09T06:50:18;51.15;;;22.17;;
17631;SDS011;8934;51.194;17.150;2023-01-09T06:53:06;45.60;;;20.20;;
17631;SDS011;8934;51.194;17.150;2023-01-09T06:55:53;45.97;;;22.23;;
17631;SDS011;8934;51.194;17.150;2023-01-09T06:58:42;42.03;;;19.55;;
17631;SDS011;8934;51.194;17.150;2023-01-09T07:01:30;41.85;;;20.02;;
17631;SDS011;8934;51.194;17.150;2023-01-09T07:04:17;38.63;;;17.15;;
17631;SDS011;8934;51.194;17.150;2023-01-09T07:07:06;40.45;;;18.30;;
17631;SDS011;8934;51.194;17.150;2023-01-09T07:09:54;34.55;;;17.17;;
17631;SDS011;8934;51.194;17.150;2023-01-09T07:12:41;55.08;;;24.05;;
17631;SDS011;8934;51.194;17.150;2023-01-09T07:15:29;53.00;;;22.90;;
17631;SDS011;8934;51.194;17.150;2023-01-09T07:18:17;71.07;;;26.73;;
17631;SDS011;8934;51.194;17.150;2023-01-09T07:21:04;66.68;;;28.83;;
17631;SDS011;8934;51.194;17.150;2023-01-09T07:23:52;48.35;;;23.92;;
17631;SDS011;8934;51.194;17.150;2023-01-09T07:26:39;51.85;;;22.60;;
17631;SDS011;8934;51.194;17.150;2023-01-09T07:29:28;40.67;;;21.13;;
17631;SDS011;8934;51.194;17.150;2023-01-09T07:32:17;41.83;;;20.92;;
17631;SDS011;8934;51.194;17.150;2023-01-09T07:35:05;42.95;;;21.30;;
17631;SDS011;8934;51.194;17.150;2023-01-09T07:37:53;45.75;;;20.70;;
17631;SDS011;8934;51.194;17.150;2023-01-09T07:40:40;42.63;;;20.35;;
17631;SDS011;8934;51.194;17.150;2023-01-09T07:43:27;41.85;;;20.00;;
17631;SDS011;8934;51.194;17.150;2023-01-09T07:46:14;42.42;;;20.00;;
17631;SDS011;8934;51.194;17.150;2023-01-09T07:49:03;42.83;;;19.58;;
17631;SDS011;8934;51.194;17.150;2023-01-09T07:51:51;60.45;;;25.60;;
17631;SDS011;8934;51.194;17.150;2023-01-09T07:54:38;47.35;;;23.80;;
17631;SDS011;8934;51.194;17.150;2023-01-09T07:57:25;50.33;;;23.02;;
17631;SDS011;8934;51.194;17.150;2023-01-09T08:00:14;49.08;;;22.27;;
17631;SDS011;8934;51.194;17.150;2023-01-09T08:03:02;45.15;;;21.95;;
17631;SDS011;8934;51.194;17.150;2023-01-09T08:05:51;50.78;;;24.48;;
17631;SDS011;8934;51.194;17.150;2023-01-09T08:08:38;55.70;;;24.85;;
17631;SDS011;8934;51.194;17.150;2023-01-09T08:11:25;50.88;;;23.85;;
17631;SDS011;8934;51.194;17.150;2023-01-09T08:14:13;51.42;;;24.85;;
17631;SDS011;8934;51.194;17.150;2023-01-09T08:17:00;54.42;;;25.50;;
17631;SDS011;8934;51.194;17.150;2023-01-09T08:19:48;54.17;;;24.67;;
17631;SDS011;8934;51.194;17.150;2023-01-09T08:22:37;54.35;;;26.48;;
17631;SDS011;8934;51.194;17.150;2023-01-09T08:25:24;57.15;;;26.73;;
17631;SDS011;8934;51.194;17.150;2023-01-09T08:28:11;53.55;;;25.20;;
17631;SDS011;8934;51.194;17.150;2023-01-09T08:30:59;68.03;;;28.33;;
17631;SDS011;8934;51.194;17.150;2023-01-09T08:33:46;66.15;;;30.20;;
17631;SDS011;8934;51.194;17.150;2023-01-09T08:36:33;59.78;;;28.77;;
17631;SDS011;8934;51.194;17.150;2023-01-09T08:39:23;66.63;;;31.08;;
17631;SDS011;8934;51.194;17.150;2023-01-09T08:42:10;68.13;;;29.35;;
17631;SDS011;8934;51.194;17.150;2023-01-09T08:45:15;66.75;;;30.38;;
17631;SDS011;8934;51.194;17.150;2023-01-09T08:48:21;68.38;;;29.63;;
17631;SDS011;8934;51.194;17.150;2023-01-09T08:51:08;66.82;;;32.17;;
17631;SDS011;8934;51.194;17.150;2023-01-09T08:53:56;72.60;;;32.00;;
17631;SDS011;8934;51.194;17.150;2023-01-09T08:56:44;73.18;;;32.50;;
17631;SDS011;8934;51.194;17.150;2023-01-09T08:59:32;78.95;;;32.65;;
17631;SDS011;8934;51.194;17.150;2023-01-09T09:02:19;71.00;;;31.20;;
17631;SDS011;8934;51.194;17.150;2023-01-09T09:05:07;83.75;;;31.90;;
17631;SDS011;8934;51.194;17.150;2023-01-09T09:07:54;66.90;;;31.20;;
17631;SDS011;8934;51.194;17.150;2023-01-09T09:10:42;63.15;;;29.05;;
17631;SDS011;8934;51.194;17.150;2023-01-09T09:13:31;67.93;;;30.42;;
17631;SDS011;8934;51.194;17.150;2023-01-09T09:16:19;69.57;;;31.05;;
17631;SDS011;8934;51.194;17.150;2023-01-09T09:19:06;69.78;;;31.48;;
17631;SDS011;8934;51.194;17.150;2023-01-09T09:21:54;63.80;;;28.17;;
17631;SDS011;8934;51.194;17.150;2023-01-09T09:24:41;62.80;;;29.13;;
17631;SDS011;8934;51.194;17.150;2023-01-09T09:27:28;69.95;;;31.65;;
17631;SDS011;8934;51.194;17.150;2023-01-09T09:30:17;65.20;;;31.85;;
17631;SDS011;8934;51.194;17.150;2023-01-09T09:33:05;70.82;;;32.72;;
17631;SDS011;8934;51.194;17.150;2023-01-09T09:35:53;67.25;;;30.17;;
17631;SDS011;8934;51.194;17.150;2023-01-09T09:38:40;57.88;;;26.52;;
17631;SDS011;8934;51.194;17.150;2023-01-09T09:41:34;56.05;;;26.65;;
17631;SDS011;8934;51.194;17.150;2023-01-09T09:45:04;48.25;;;24.05;;
17631;SDS011;8934;51.194;17.150;2023-01-09T09:48:02;50.33;;;25.67;;
17631;SDS011;8934;51.194;17.150;2023-01-09T09:54:23;65.60;;;28.35;;
17631;SDS011;8934;51.194;17.150;2023-01-09T09:57:18;47.15;;;23.27;;
17631;SDS011;8934;51.194;17.150;2023-01-09T10:00:14;46.88;;;24.20;;
17631;SDS011;8934;51.194;17.150;2023-01-09T10:03:05;49.88;;;24.83;;
17631;SDS011;8934;51.194;17.150;2023-01-09T10:05:59;44.97;;;23.77;;
17631;SDS011;8934;51.194;17.150;2023-01-09T10:08:51;45.67;;;22.70;;
17631;SDS011;8934;51.194;17.150;2023-01-09T10:11:42;41.38;;;20.92;;
17631;SDS011;8934;51.194;17.150;2023-01-09T10:14:34;54.63;;;26.25;;
17631;SDS011;8934;51.194;17.150;2023-01-09T10:17:28;55.67;;;25.05;;
17631;SDS011;8934;51.194;17.150;2023-01-09T10:23:43;55.17;;;24.63;;
17631;SDS011;8934;51.194;17.150;2023-01-09T10:26:41;55.33;;;24.70;;
17631;SDS011;8934;51.194;17.150;2023-01-09T10:29:35;65.47;;;29.25;;
17631;SDS011;8934;51.194;17.150;2023-01-09T10:32:39;60.80;;;28.30;;
17631;SDS011;8934;51.194;17.150;2023-01-09T10:35:37;64.85;;;30.33;;
17631;SDS011;8934;51.194;17.150;2023-01-09T10:38:49;63.95;;;30.60;;
17631;SDS011;8934;51.194;17.150;2023-01-09T10:41:42;61.60;;;29.83;;
17631;SDS011;8934;51.194;17.150;2023-01-09T10:44:37;60.40;;;30.00;;
17631;SDS011;8934;51.194;17.150;2023-01-09T10:47:31;63.67;;;30.58;;
17631;SDS011;8934;51.194;17.150;2023-01-09T10:50:21;66.78;;;30.58;;
17631;SDS011;8934;51.194;17.150;2023-01-09T10:53:13;60.65;;;30.55;;
17631;SDS011;8934;51.194;17.150;2023-01-09T10:56:07;61.40;;;29.20;;
17631;SDS011;8934;51.194;17.150;2023-01-09T10:59:03;61.22;;;29.73;;
17631;SDS011;8934;51.194;17.150;2023-01-09T11:01:51;58.63;;;28.25;;
17631;SDS011;8934;51.194;17.150;2023-01-09T11:04:39;62.72;;;29.92;;
17631;SDS011;8934;51.194;17.150;2023-01-09T11:07:28;51.72;;;27.52;;
17631;SDS011;8934;51.194;17.150;2023-01-09T11:10:18;52.88;;;27.35;;
17631;SDS011;8934;51.194;17.150;2023-01-09T11:13:12;50.13;;;25.50;;
17631;SDS011;8934;51.194;17.150;2023-01-09T11:16:02;53.20;;;26.90;;
17631;SDS011;8934;51.194;17.150;2023-01-09T11:18:52;47.35;;;26.40;;
17631;SDS011;8934;51.194;17.150;2023-01-09T11:21:43;50.97;;;24.95;;
17631;SDS011;8934;51.194;17.150;2023-01-09T11:24:30;51.10;;;24.15;;
17631;SDS011;8934;51.194;17.150;2023-01-09T11:27:22;43.53;;;23.45;;
17631;SDS011;8934;51.194;17.150;2023-01-09T11:30:21;40.30;;;22.92;;
17631;SDS011;8934;51.194;17.150;2023-01-09T11:33:13;45.47;;;22.55;;
17631;SDS011;8934;51.194;17.150;2023-01-09T11:36:03;45.58;;;23.65;;
17631;SDS011;8934;51.194;17.150;2023-01-09T11:38:55;44.45;;;24.30;;
17631;SDS011;8934;51.194;17.150;2023-01-09T11:41:44;39.63;;;21.83;;
17631;SDS011;8934;51.194;17.150;2023-01-09T11:44:34;42.78;;;22.60;;
17631;SDS011;8934;51.194;17.150;2023-01-09T11:47:36;43.47;;;22.15;;
17631;SDS011;8934;51.194;17.150;2023-01-09T11:50:26;41.75;;;22.27;;
17631;SDS011;8934;51.194;17.150;2023-01-09T11:53:16;42.47;;;23.50;;
17631;SDS011;8934;51.194;17.150;2023-01-09T11:56:07;44.60;;;23.60;;
17631;SDS011;8934;51.194;17.150;2023-01-09T11:58:57;43.15;;;23.88;;
17631;SDS011;8934;51.194;17.150;2023-01-09T12:02:04;48.63;;;27.27;;
17631;SDS011;8934;51.194;17.150;2023-01-09T12:05:12;42.72;;;23.63;;
17631;SDS011;8934;51.194;17.150;2023-01-09T12:08:15;46.10;;;23.95;;
17631;SDS011;8934;51.194;17.150;2023-01-09T12:11:30;48.92;;;25.92;;
17631;SDS011;8934;51.194;17.150;2023-01-09T12:17:40;42.47;;;22.50;;
17631;SDS011;8934;51.194;17.150;2023-01-09T12:20:58;39.65;;;21.73;;
17631;SDS011;8934;51.194;17.150;2023-01-09T12:27:24;32.97;;;18.85;;
17631;SDS011;8934;51.194;17.150;2023-01-09T12:30:19;31.75;;;18.85;;
17631;SDS011;8934;51.194;17.150;2023-01-09T12:33:23;29.08;;;17.27;;
17631;SDS011;8934;51.194;17.150;2023-01-09T12:36:21;30.60;;;15.38;;
17631;SDS011;8934;51.194;17.150;2023-01-09T12:39:18;25.85;;;15.02;;
17631;SDS011;8934;51.194;17.150;2023-01-09T12:42:16;24.25;;;14.85;;
17631;SDS011;8934;51.194;17.150;2023-01-09T12:45:32;24.60;;;14.55;;
17631;SDS011;8934;51.194;17.150;2023-01-09T12:48:33;26.60;;;16.35;;
17631;SDS011;8934;51.194;17.150;2023-01-09T12:51:38;22.42;;;13.77;;
17631;SDS011;8934;51.194;17.150;2023-01-09T12:54:31;23.67;;;13.43;;
17631;SDS011;8934;51.194;17.150;2023-01-09T12:57:24;26.98;;;14.45;;
17631;SDS011;8934;51.194;17.150;2023-01-09T13:00:17;24.38;;;13.75;;
17631;SDS011;8934;51.194;17.150;2023-01-09T13:03:11;24.80;;;13.95;;
17631;SDS011;8934;51.194;17.150;2023-01-09T13:06:05;21.75;;;12.77;;
17631;SDS011;8934;51.194;17.150;2023-01-09T13:09:05;26.70;;;14.70;;
17631;SDS011;8934;51.194;17.150;2023-01-09T13:12:01;25.17;;;13.13;;
17631;SDS011;8934;51.194;17.150;2023-01-09T13:14:54;24.50;;;13.23;;
17631;SDS011;8934;51.194;17.150;2023-01-09T13:17:45;28.08;;;14.48;;
17631;SDS011;8934;51.194;17.150;2023-01-09T13:20:37;26.13;;;13.45;;
17631;SDS011;8934;51.194;17.150;2023-01-09T13:23:32;23.08;;;12.48;;
17631;SDS011;8934;51.194;17.150;2023-01-09T13:26:27;19.92;;;11.40;;
17631;SDS011;8934;51.194;17.150;2023-01-09T13:29:17;19.52;;;11.40;;
17631;SDS011;8934;51.194;17.150;2023-01-09T13:32:17;18.17;;;9.13;;
17631;SDS011;8934;51.194;17.150;2023-01-09T13:35:15;14.13;;;8.18;;
17631;SDS011;8934;51.194;17.150;2023-01-09T13:38:03;15.65;;;8.00;;
17631;SDS011;8934;51.194;17.150;2023-01-09T13:41:07;15.70;;;8.05;;
17631;SDS011;8934;51.194;17.150;2023-01-09T13:44:20;14.85;;;8.63;;
17631;SDS011;8934;51.194;17.150;2023-01-09T13:47:15;16.80;;;8.82;;
17631;SDS011;8934;51.194;17.150;2023-01-09T13:56:32;20.08;;;9.82;;
17631;SDS011;8934;51.194;17.150;2023-01-09T13:59:58;16.77;;;9.43;;
17631;SDS011;8934;51.194;17.150;2023-01-09T14:03:25;26.73;;;11.18;;
17631;SDS011;8934;51.194;17.150;2023-01-09T14:06:17;26.88;;;11.70;;
17631;SDS011;8934;51.194;17.150;2023-01-09T14:09:15;13.75;;;8.55;;
17631;SDS011;8934;51.194;17.150;2023-01-09T14:12:06;13.27;;;8.38;;
17631;SDS011;8934;51.194;17.150;2023-01-09T14:14:54;15.00;;;7.95;;
17631;SDS011;8934;51.194;17.150;2023-01-09T14:17:45;13.57;;;8.02;;
17631;SDS011;8934;51.194;17.150;2023-01-09T14:20:35;14.27;;;7.85;;
17631;SDS011;8934;51.194;17.150;2023-01-09T14:23:24;13.50;;;7.50;;
17631;SDS011;8934;51.194;17.150;2023-01-09T14:26:43;11.90;;;7.88;;
17631;SDS011;8934;51.194;17.150;2023-01-09T14:29:35;14.45;;;8.27;;
17631;SDS011;8934;51.194;17.150;2023-01-09T14:32:36;12.68;;;7.10;;
17631;SDS011;8934;51.194;17.150;2023-01-09T14:35:41;12.80;;;7.80;;
17631;SDS011;8934;51.194;17.150;2023-01-09T14:38:32;10.82;;;7.22;;
17631;SDS011;8934;51.194;17.150;2023-01-09T14:41:23;13.68;;;8.73;;
17631;SDS011;8934;51.194;17.150;2023-01-09T14:44:44;13.57;;;8.10;;
17631;SDS011;8934;51.194;17.150;2023-01-09T14:47:35;12.98;;;7.40;;
17631;SDS011;8934;51.194;17.150;2023-01-09T14:50:29;11.38;;;6.60;;
17631;SDS011;8934;51.194;17.150;2023-01-09T14:53:20;10.02;;;6.50;;
17631;SDS011;8934;51.194;17.150;2023-01-09T14:56:22;11.65;;;7.22;;
17631;SDS011;8934;51.194;17.150;2023-01-09T14:59:12;11.40;;;6.72;;
17631;SDS011;8934;51.194;17.150;2023-01-09T15:02:01;14.35;;;7.93;;
17631;SDS011;8934;51.194;17.150;2023-01-09T15:04:48;13.02;;;7.43;;
17631;SDS011;8934;51.194;17.150;2023-01-09T15:07:38;12.82;;;6.90;;
17631;SDS011;8934;51.194;17.150;2023-01-09T15:10:31;10.18;;;5.93;;
17631;SDS011;8934;51.194;17.150;2023-01-09T15:13:24;11.63;;;6.03;;
17631;SDS011;8934;51.194;17.150;2023-01-09T15:16:15;12.60;;;6.88;;
17631;SDS011;8934;51.194;17.150;2023-01-09T15:19:05;9.98;;;6.13;;
17631;SDS011;8934;51.194;17.150;2023-01-09T15:21:58;12.77;;;6.53;;
17631;SDS011;8934;51.194;17.150;2023-01-09T15:24:48;11.60;;;5.72;;
17631;SDS011;8934;51.194;17.150;2023-01-09T15:27:45;9.15;;;5.80;;
17631;SDS011;8934;51.194;17.150;2023-01-09T15:33:20;11.00;;;5.75;;
17631;SDS011;8934;51.194;17.150;2023-01-09T15:36:09;9.95;;;5.70;;
17631;SDS011;8934;51.194;17.150;2023-01-09T15:38:59;9.80;;;5.88;;
17631;SDS011;8934;51.194;17.150;2023-01-09T15:41:48;10.35;;;6.18;;
17631;SDS011;8934;51.194;17.150;2023-01-09T15:44:53;9.77;;;5.40;;
17631;SDS011;8934;51.194;17.150;2023-01-09T15:47:40;12.35;;;6.43;;
17631;SDS011;8934;51.194;17.150;2023-01-09T15:50:27;8.27;;;5.47;;
17631;SDS011;8934;51.194;17.150;2023-01-09T15:53:16;11.50;;;6.20;;
17631;SDS011;8934;51.194;17.150;2023-01-09T15:56:15;10.65;;;5.82;;
17631;SDS011;8934;51.194;17.150;2023-01-09T15:59:15;14.20;;;6.68;;
17631;SDS011;8934;51.194;17.150;2023-01-09T16:02:09;10.25;;;6.10;;
17631;SDS011;8934;51.194;17.150;2023-01-09T16:05:17;7.53;;;5.68;;
17631;SDS011;8934;51.194;17.150;2023-01-09T16:08:13;9.38;;;5.20;;
17631;SDS011;8934;51.194;17.150;2023-01-09T16:11:08;8.15;;;5.03;;
17631;SDS011;8934;51.194;17.150;2023-01-09T16:14:11;9.20;;;5.03;;
17631;SDS011;8934;51.194;17.150;2023-01-09T16:17:01;10.25;;;5.45;;
17631;SDS011;8934;51.194;17.150;2023-01-09T16:19:52;9.20;;;5.88;;
17631;SDS011;8934;51.194;17.150;2023-01-09T16:22:50;9.55;;;5.53;;
17631;SDS011;8934;51.194;17.150;2023-01-09T16:25:38;11.85;;;6.72;;
17631;SDS011;8934;51.194;17.150;2023-01-09T16:28:25;10.15;;;5.68;;
17631;SDS011;8934;51.194;17.150;2023-01-09T16:31:17;10.57;;;6.43;;
17631;SDS011;8934;51.194;17.150;2023-01-09T16:34:10;12.93;;;6.13;;
17631;SDS011;8934;51.194;17.150;2023-01-09T16:36:58;13.30;;;6.75;;
17631;SDS011;8934;51.194;17.150;2023-01-09T16:40:12;13.30;;;6.60;;
17631;SDS011;8934;51.194;17.150;2023-01-09T16:43:08;9.68;;;6.22;;
17631;SDS011;8934;51.194;17.150;2023-01-09T16:45:59;13.70;;;8.15;;
17631;SDS011;8934;51.194;17.150;2023-01-09T16:48:47;25.83;;;13.65;;
17631;SDS011;8934;51.194;17.150;2023-01-09T16:51:36;18.10;;;10.13;;
17631;SDS011;8934;51.194;17.150;2023-01-09T16:54:23;17.77;;;11.07;;
17631;SDS011;8934;51.194;17.150;2023-01-09T16:57:12;16.25;;;8.82;;
17631;SDS011;8934;51.194;17.150;2023-01-09T17:00:02;15.93;;;8.98;;
17631;SDS011;8934;51.194;17.150;2023-01-09T17:02:50;17.50;;;9.10;;
17631;SDS011;8934;51.194;17.150;2023-01-09T17:05:37;16.27;;;9.30;;
17631;SDS011;8934;51.194;17.150;2023-01-09T17:08:27;15.88;;;9.10;;
17631;SDS011;8934;51.194;17.150;2023-01-09T17:11:19;14.00;;;8.48;;
17631;SDS011;8934;51.194;17.150;2023-01-09T17:14:08;17.27;;;9.57;;